Portada
METAR-TAF:

METAR-TAF

Aeropuertos :

Aeropuerto Internacional de Bagdad

Bagdad, Iraq

latitud: 33-15-45N, longitud: 44-14-04E, altitud: 35 m

Observación

El informe se hizo hace 32 minutos, a las 07:00 UTC
Viento 14 kt del oeste-noroeste
Temperatura 37°C
Humedad 27%
Presión 1001 hPa
Visibilidad 10 km o más
sin nubes por debajo de 1500 m y sin presencia de cumulonimbus.

METAR: ORBI 210700Z 30014KT CAVOK 37/15 Q1001 NOSIG

Hora: 10:32 (07:32 UTC)

Pronóstico

El informe se hizo hace 3 horas y 32 minutos, a las 04:00 UTC
Pronóstico válido del 21 a las 06 UTC al 22 a las 06 UTC
Viento 12 kt del noroeste
Visibilidad: 8000 m

TAF: ORBI 210400Z 2106/2206 32012KT 8000 NSC

Observaciones y pronósticos meteorológicos de más de 4000 aeropuertos (mensajes METAR y TAF).

Los puntos amarillos y rojos representan las estaciones disponibles.

Ponga el ratón en el punto deseado para ver el nombre de la estación.

Haga clic para ver las observaciones y los pronósticos meteorológicos.

Para cambiar el mapa : haga clic en los botones verdes con una cruz de color negro para hacer un zoom, en el botón verde con un guión para alejar o en las flechas verdes para mapas adyacentes.


METAR-TAF: